createdAt,value
2018-07-12T00:00:46.384Z,16.37
2018-07-12T00:03:12.598Z,20.33
2018-07-12T00:05:38.938Z,19.40
2018-07-12T00:08:05.177Z,23.97
2018-07-12T00:10:31.398Z,27.43
2018-07-12T00:12:57.639Z,25.43
2018-07-12T00:15:23.886Z,18.43
2018-07-12T00:17:50.138Z,20.23
2018-07-12T00:20:16.431Z,20.37
2018-07-12T00:22:42.669Z,25.53
2018-07-12T00:25:08.935Z,20.63
2018-07-12T00:27:35.152Z,19.03
2018-07-12T00:30:01.380Z,21.53
2018-07-12T00:32:27.595Z,19.53
2018-07-12T00:34:53.809Z,20.60
2018-07-12T00:37:20.463Z,18.50
2018-07-12T00:39:46.802Z,19.53
2018-07-12T00:42:13.032Z,21.30
2018-07-12T00:44:39.280Z,20.67
2018-07-12T00:47:05.502Z,20.00
2018-07-12T00:49:31.719Z,20.13
2018-07-12T00:51:57.938Z,18.47
2018-07-12T00:54:24.173Z,19.50
2018-07-12T00:56:50.485Z,17.77
2018-07-12T00:59:16.845Z,19.83
2018-07-12T01:01:43.065Z,20.57
2018-07-12T01:04:09.266Z,18.40
2018-07-12T01:06:35.482Z,18.33
2018-07-12T01:09:01.724Z,21.27
2018-07-12T01:11:27.973Z,17.93
2018-07-12T01:13:54.213Z,22.57
2018-07-12T01:16:20.493Z,19.27
2018-07-12T01:18:46.746Z,18.83
2018-07-12T01:21:12.977Z,18.37
2018-07-12T01:23:39.198Z,16.93
2018-07-12T01:26:05.599Z,18.73
2018-07-12T01:28:31.950Z,16.80
2018-07-12T01:30:58.183Z,21.17
2018-07-12T01:33:24.427Z,17.47
2018-07-12T01:35:50.660Z,16.53
2018-07-12T01:38:17.008Z,20.00
2018-07-12T01:40:43.222Z,17.97
2018-07-12T01:43:09.706Z,17.70
2018-07-12T01:45:35.953Z,22.07
2018-07-12T01:48:02.162Z,19.83
2018-07-12T01:50:28.377Z,18.53
2018-07-12T01:52:55.558Z,15.87
2018-07-12T01:55:21.794Z,16.67
2018-07-12T01:57:48.109Z,18.70
2018-07-12T02:00:14.419Z,16.30
2018-07-12T02:02:40.669Z,18.63
2018-07-12T02:05:06.901Z,18.17
2018-07-12T02:07:33.136Z,16.67
2018-07-12T02:09:59.491Z,15.40
2018-07-12T02:12:25.708Z,15.80
2018-07-12T02:14:51.940Z,17.40
2018-07-12T02:17:18.676Z,15.80
2018-07-12T02:19:44.930Z,14.90
2018-07-12T02:22:11.167Z,15.07
2018-07-12T02:24:37.909Z,14.53
2018-07-12T02:27:04.130Z,15.27
2018-07-12T02:29:30.355Z,15.63
2018-07-12T02:31:56.597Z,14.47
2018-07-12T02:34:22.859Z,13.80
2018-07-12T02:36:49.110Z,15.33
2018-07-12T02:39:15.334Z,16.23
2018-07-12T02:41:41.587Z,17.83
2018-07-12T02:44:07.844Z,17.57
2018-07-12T02:46:34.175Z,16.93
2018-07-12T02:49:00.398Z,15.60
2018-07-12T02:51:26.630Z,15.87
2018-07-12T02:53:52.853Z,13.70
2018-07-12T02:56:19.092Z,17.97
2018-07-12T02:58:45.363Z,14.17
2018-07-12T03:01:11.656Z,14.87
2018-07-12T03:03:37.926Z,13.60
2018-07-12T03:06:04.148Z,15.20
2018-07-12T03:08:30.372Z,16.03
2018-07-12T03:10:56.591Z,13.00
2018-07-12T03:13:22.805Z,13.43
2018-07-12T03:15:49.032Z,17.27
2018-07-12T03:18:15.268Z,13.60
2018-07-12T03:20:41.532Z,12.00
2018-07-12T03:23:07.794Z,15.87
2018-07-12T03:25:34.022Z,14.67
2018-07-12T03:28:00.247Z,13.67
2018-07-12T03:30:26.472Z,20.27
2018-07-12T03:32:52.694Z,14.00
2018-07-12T03:35:18.931Z,14.33
2018-07-12T03:37:45.331Z,14.60
2018-07-12T03:40:12.096Z,16.90
2018-07-12T03:42:38.354Z,15.37
2018-07-12T03:45:04.578Z,13.50
2018-07-12T03:47:30.889Z,14.07
2018-07-12T03:49:57.214Z,14.03
2018-07-12T03:52:23.435Z,17.60
2018-07-12T03:54:49.675Z,13.43
2018-07-12T03:57:15.907Z,16.40
2018-07-12T03:59:42.156Z,15.73
2018-07-12T04:02:08.398Z,16.57
2018-07-12T04:04:34.648Z,13.57
2018-07-12T04:07:00.871Z,14.90
2018-07-12T04:09:27.272Z,13.77
2018-07-12T04:11:53.488Z,15.20
2018-07-12T04:14:19.713Z,14.93
2018-07-12T04:16:46.397Z,15.33
2018-07-12T04:19:12.646Z,13.23
2018-07-12T04:21:38.916Z,13.87
2018-07-12T04:24:05.142Z,13.53
2018-07-12T04:26:31.368Z,15.43
2018-07-12T04:28:57.809Z,13.10
2018-07-12T04:31:24.029Z,12.63
2018-07-12T04:33:50.243Z,15.10
2018-07-12T04:36:16.471Z,18.40
2018-07-12T04:38:42.686Z,18.30
2018-07-12T04:41:08.955Z,12.97
2018-07-12T04:43:35.366Z,13.67
2018-07-12T04:46:01.587Z,13.10
2018-07-12T04:48:27.807Z,13.00
2018-07-12T04:50:54.031Z,13.77
2018-07-12T04:53:20.265Z,12.03
2018-07-12T04:55:46.697Z,12.07
2018-07-12T04:58:13.036Z,12.17
2018-07-12T05:00:39.250Z,12.37
2018-07-12T05:03:05.480Z,11.73
2018-07-12T05:05:31.710Z,15.17
2018-07-12T05:07:57.943Z,12.23
2018-07-12T05:10:24.177Z,13.40
2018-07-12T05:12:50.427Z,10.10
2018-07-12T05:15:16.655Z,10.83
2018-07-12T05:17:42.970Z,16.10
2018-07-12T05:20:09.217Z,12.55
2018-07-12T05:22:35.469Z,9.93
2018-07-12T05:25:01.982Z,10.32
2018-07-12T05:27:28.206Z,10.63
2018-07-12T05:29:54.425Z,12.30
2018-07-12T05:32:20.684Z,12.80
2018-07-12T05:34:47.370Z,11.07
2018-07-12T05:37:14.596Z,11.87
2018-07-12T05:39:41.797Z,12.70
2018-07-12T05:42:08.962Z,11.27
2018-07-12T05:44:36.107Z,11.43
2018-07-12T05:47:03.261Z,16.70
2018-07-12T05:49:30.384Z,13.53
2018-07-12T05:51:57.515Z,12.47
2018-07-12T05:54:24.734Z,13.43
2018-07-12T05:56:51.885Z,12.43
2018-07-12T05:59:19.194Z,11.33
2018-07-12T06:01:58.030Z,10.37
2018-07-12T06:04:25.229Z,8.70
2018-07-12T06:06:52.354Z,11.90
2018-07-12T06:09:19.491Z,9.43
2018-07-12T06:11:46.618Z,10.07
2018-07-12T06:14:13.814Z,10.00
2018-07-12T06:16:41.076Z,10.57
2018-07-12T06:19:08.389Z,8.43
2018-07-12T06:21:35.571Z,7.97
2018-07-12T06:24:02.733Z,8.17
2018-07-12T06:26:29.838Z,9.90
2018-07-12T06:28:56.971Z,9.20
2018-07-12T06:31:24.194Z,12.77
2018-07-12T06:33:51.308Z,8.37
2018-07-12T06:36:18.488Z,9.37
2018-07-12T06:38:46.204Z,8.53
2018-07-12T06:41:13.349Z,6.40
2018-07-12T06:43:40.546Z,5.78
2018-07-12T06:46:07.683Z,6.08
2018-07-12T06:48:34.815Z,5.67
2018-07-12T06:51:01.939Z,5.67
2018-07-12T06:53:29.073Z,5.37
2018-07-12T06:55:56.430Z,4.95
2018-07-12T06:58:24.244Z,5.33
2018-07-12T07:00:51.492Z,8.53
2018-07-12T07:03:18.671Z,4.30
2018-07-12T07:05:45.797Z,5.85
2018-07-12T07:08:14.943Z,5.83
2018-07-12T07:10:42.802Z,5.17
2018-07-12T07:13:13.615Z,5.35
2018-07-12T07:15:41.497Z,2.27
2018-07-12T07:18:20.975Z,2.92
2018-07-12T07:20:50.330Z,2.98
2018-07-12T07:23:23.537Z,2.63
2018-07-12T07:25:50.906Z,2.30
2018-07-12T07:28:18.961Z,2.77
2018-07-12T07:30:46.358Z,2.47
2018-07-12T07:33:13.671Z,2.63
2018-07-12T07:35:40.881Z,2.80
2018-07-12T07:38:07.958Z,3.43
2018-07-12T07:40:35.087Z,3.17
2018-07-12T07:43:02.570Z,3.10
2018-07-12T07:45:30.230Z,3.93
2018-07-12T07:47:57.335Z,2.63
2018-07-12T07:50:24.478Z,2.83
2018-07-12T07:52:52.255Z,2.57
2018-07-12T07:55:20.505Z,2.63
2018-07-12T07:57:47.944Z,2.80
2018-07-12T08:00:17.529Z,5.00
2018-07-12T08:02:44.783Z,3.47
2018-07-12T08:05:12.170Z,3.27
2018-07-12T08:07:39.421Z,3.47
2018-07-12T08:10:06.645Z,3.73
2018-07-12T08:12:33.926Z,4.17
2018-07-12T08:15:01.061Z,2.40
2018-07-12T08:17:28.187Z,4.12
2018-07-12T08:19:55.318Z,2.98
2018-07-12T08:22:22.450Z,2.35
2018-07-12T08:24:58.779Z,2.75
2018-07-12T08:27:26.170Z,4.90
2018-07-12T08:29:53.471Z,2.17
2018-07-12T08:32:20.594Z,2.00
2018-07-12T08:34:47.754Z,2.30
2018-07-12T08:37:14.909Z,2.17
2018-07-12T08:39:42.061Z,3.87
2018-07-12T08:42:09.242Z,2.42
2018-07-12T08:44:36.372Z,3.70
2018-07-12T08:47:03.552Z,1.92
2018-07-12T08:49:30.739Z,5.00
2018-07-12T08:51:57.866Z,2.83
2018-07-12T08:54:25.019Z,2.25
2018-07-12T08:56:52.154Z,2.20
2018-07-12T08:59:19.294Z,2.52
2018-07-12T09:01:46.445Z,2.00
2018-07-12T09:04:13.846Z,2.20
2018-07-12T09:06:41.094Z,6.15
2018-07-12T09:09:08.439Z,2.37
2018-07-12T09:11:35.605Z,2.58
2018-07-12T09:14:02.762Z,2.50
2018-07-12T09:16:29.883Z,3.60
2018-07-12T09:18:57.053Z,2.95
2018-07-12T09:21:24.187Z,2.35
2018-07-12T09:23:51.463Z,2.12
2018-07-12T09:26:18.615Z,6.92
2018-07-12T09:28:46.398Z,3.50
2018-07-12T09:31:13.595Z,2.58
2018-07-12T09:33:41.575Z,3.52
2018-07-12T09:36:08.824Z,3.00
2018-07-12T09:38:48.154Z,2.30
2018-07-12T09:41:16.739Z,2.52
2018-07-12T09:43:44.813Z,6.60
2018-07-12T09:46:11.993Z,4.10
2018-07-12T09:48:43.391Z,2.37
2018-07-12T09:51:11.517Z,5.03
2018-07-12T09:53:39.272Z,4.35
2018-07-12T09:56:06.538Z,2.30
2018-07-12T09:58:33.604Z,1.90
2018-07-12T10:01:06.650Z,2.90
2018-07-12T10:03:39.551Z,2.33
2018-07-12T10:06:12.481Z,3.00
2018-07-12T10:08:45.378Z,2.83
2018-07-12T10:11:17.155Z,5.93
2018-07-12T10:13:50.034Z,2.43
2018-07-12T10:16:23.875Z,3.80
2018-07-12T10:18:51.243Z,2.13
2018-07-12T10:21:18.492Z,2.55
2018-07-12T10:23:45.673Z,2.33
2018-07-12T10:26:12.827Z,3.57
2018-07-12T10:28:40.074Z,2.70
2018-07-12T10:31:07.305Z,2.40
2018-07-12T10:33:34.441Z,2.10
2018-07-12T10:36:01.590Z,3.15
2018-07-12T10:41:02.708Z,4.60
2018-07-12T10:43:29.823Z,2.15
2018-07-12T10:45:56.979Z,1.87
2018-07-12T10:48:24.102Z,2.22
2018-07-12T10:50:53.049Z,1.85
2018-07-12T10:53:20.285Z,2.12
2018-07-12T10:55:47.507Z,1.87
2018-07-12T10:58:14.739Z,1.80
2018-07-12T11:00:41.914Z,2.65
2018-07-12T11:03:09.107Z,1.92
2018-07-12T11:05:36.447Z,1.80
2018-07-12T11:08:03.722Z,2.08
2018-07-12T11:10:30.966Z,2.10
2018-07-12T11:13:06.964Z,2.17
2018-07-12T11:15:34.202Z,2.10
2018-07-12T11:18:01.348Z,3.95
2018-07-12T11:20:28.525Z,2.00
2018-07-12T11:22:55.658Z,2.12
2018-07-12T11:25:22.847Z,6.05
2018-07-12T11:27:50.025Z,2.00
2018-07-12T11:30:17.559Z,1.77
2018-07-12T11:32:44.664Z,2.72
2018-07-12T11:35:11.996Z,1.50
2018-07-12T11:37:39.146Z,1.87
2018-07-12T11:40:06.311Z,1.70
2018-07-12T11:42:33.431Z,1.37
2018-07-12T11:45:00.636Z,2.58
2018-07-12T11:47:27.782Z,1.70
2018-07-12T11:49:54.946Z,1.47
2018-07-12T11:52:22.103Z,1.62
2018-07-12T11:54:49.222Z,1.50
2018-07-12T11:57:16.459Z,2.25
2018-07-12T11:59:43.667Z,1.80
2018-07-12T12:02:11.069Z,1.50
2018-07-12T12:04:38.198Z,1.80
2018-07-12T12:07:05.318Z,1.70
2018-07-12T12:09:32.434Z,1.72
2018-07-12T12:11:59.556Z,1.52
2018-07-12T12:14:26.684Z,1.50
2018-07-12T12:16:53.842Z,1.65
2018-07-12T12:19:20.967Z,1.70
2018-07-12T12:21:48.090Z,1.42
2018-07-12T12:24:15.283Z,2.22
2018-07-12T12:26:42.487Z,1.85
2018-07-12T12:29:09.645Z,1.98
2018-07-12T12:31:36.782Z,1.40
2018-07-12T12:34:03.946Z,1.72
2018-07-12T12:36:31.076Z,1.85
2018-07-12T12:38:58.240Z,5.00
2018-07-12T12:41:25.350Z,2.17
2018-07-12T12:43:52.663Z,1.90
2018-07-12T12:46:19.774Z,1.67
2018-07-12T12:48:46.974Z,1.50
2018-07-12T12:51:14.170Z,2.02
2018-07-12T12:53:41.363Z,4.08
2018-07-12T12:56:08.588Z,4.97
2018-07-12T12:58:35.753Z,7.08
2018-07-12T13:01:02.885Z,4.87
2018-07-12T13:03:29.991Z,2.67
2018-07-12T13:05:57.166Z,3.17
2018-07-12T13:08:24.443Z,2.83
2018-07-12T13:10:51.595Z,2.27
2018-07-12T13:13:18.765Z,2.17
2018-07-12T13:15:46.005Z,2.12
2018-07-12T13:18:13.186Z,2.25
2018-07-12T13:20:40.362Z,2.60
2018-07-12T13:23:07.579Z,2.30
2018-07-12T13:25:34.788Z,4.22
2018-07-12T13:28:01.902Z,4.35
2018-07-12T13:30:28.980Z,4.83
2018-07-12T13:32:56.118Z,2.95
2018-07-12T13:35:23.224Z,3.95
2018-07-12T13:37:50.335Z,3.37
2018-07-12T13:40:17.453Z,3.52
2018-07-12T13:42:44.698Z,2.47
2018-07-12T13:45:11.902Z,2.15
2018-07-12T13:47:39.025Z,2.98
2018-07-12T13:50:06.162Z,3.17
2018-07-12T13:52:33.298Z,2.55
2018-07-12T13:55:00.443Z,3.37
2018-07-12T13:57:27.560Z,2.12
2018-07-12T13:59:54.700Z,6.75
2018-07-12T14:02:21.809Z,3.62
2018-07-12T14:04:48.958Z,2.42
2018-07-12T14:07:16.110Z,3.05
2018-07-12T14:09:43.311Z,2.80
2018-07-12T14:12:10.547Z,3.62
2018-07-12T14:14:37.686Z,2.45
2018-07-12T14:17:04.866Z,5.15
2018-07-12T14:19:38.661Z,2.70
2018-07-12T14:22:06.498Z,2.70
2018-07-12T14:24:33.639Z,3.35
2018-07-12T14:27:00.826Z,2.60
2018-07-12T14:29:27.895Z,5.28
2018-07-12T14:31:55.046Z,2.80
2018-07-12T14:34:22.147Z,2.47
2018-07-12T14:36:49.290Z,2.60
2018-07-12T14:39:16.426Z,3.58
2018-07-12T14:41:43.588Z,2.65
2018-07-12T14:44:10.792Z,2.58
2018-07-12T14:46:37.923Z,4.58
2018-07-12T14:49:05.094Z,3.95
2018-07-12T14:51:32.214Z,4.92
2018-07-12T14:53:59.406Z,3.00
2018-07-12T14:56:26.688Z,2.92
2018-07-12T14:58:53.921Z,2.80
2018-07-12T15:01:21.077Z,6.08
2018-07-12T15:03:48.307Z,3.80
2018-07-12T15:06:15.503Z,4.92
2018-07-12T15:08:42.764Z,3.60
2018-07-12T15:11:09.971Z,5.03
2018-07-12T15:13:37.078Z,2.52
2018-07-12T15:16:04.367Z,6.30
2018-07-12T15:18:31.519Z,4.17
2018-07-12T15:20:58.621Z,6.67
2018-07-12T15:23:25.803Z,4.42
2018-07-12T15:25:52.929Z,3.00
2018-07-12T15:28:20.120Z,2.95
2018-07-12T15:30:47.375Z,2.95
2018-07-12T15:33:14.518Z,6.50
2018-07-12T15:35:42.358Z,3.37
2018-07-12T15:38:09.416Z,4.00
2018-07-12T15:40:36.553Z,5.90
2018-07-12T15:43:03.697Z,4.37
2018-07-12T15:45:30.894Z,5.35
2018-07-12T15:47:58.092Z,3.52
2018-07-12T15:50:26.165Z,3.05
2018-07-12T15:52:53.522Z,5.78
2018-07-12T15:55:20.722Z,4.53
2018-07-12T15:57:48.319Z,3.40
2018-07-12T16:00:15.612Z,4.37
2018-07-12T16:02:42.763Z,3.62
2018-07-12T16:05:09.922Z,4.20
2018-07-12T16:07:37.058Z,5.03
2018-07-12T16:10:04.246Z,5.75
2018-07-12T16:12:31.371Z,4.00
2018-07-12T16:14:58.539Z,4.62
2018-07-12T16:17:25.722Z,4.90
2018-07-12T16:19:52.941Z,5.10
2018-07-12T16:22:20.095Z,7.37
2018-07-12T16:24:47.207Z,4.00
2018-07-12T16:27:14.406Z,4.72
2018-07-12T16:29:41.507Z,7.12
2018-07-12T16:32:08.658Z,5.95
2018-07-12T16:34:35.770Z,4.75
2018-07-12T16:37:03.118Z,4.25
2018-07-12T16:39:30.198Z,4.12
2018-07-12T16:41:57.479Z,2.75
2018-07-12T16:44:24.665Z,5.78
2018-07-12T16:46:51.969Z,6.12
2018-07-12T16:49:19.165Z,6.67
2018-07-12T16:51:46.343Z,6.22
2018-07-12T16:54:13.560Z,4.35
2018-07-12T16:56:40.733Z,7.08
2018-07-12T16:59:07.970Z,4.85
2018-07-12T17:01:35.218Z,3.60
2018-07-12T17:04:02.696Z,6.50
2018-07-12T17:06:29.879Z,5.60
2018-07-12T17:08:57.083Z,8.95
2018-07-12T17:11:24.521Z,6.35
2018-07-12T17:13:51.767Z,6.22
2018-07-12T17:16:18.897Z,4.10
2018-07-12T17:18:46.093Z,5.30
2018-07-12T17:21:13.246Z,4.25
2018-07-12T17:23:40.373Z,5.50
2018-07-12T17:26:07.498Z,6.60
2018-07-12T17:28:34.659Z,6.30
2018-07-12T17:31:01.775Z,4.45
2018-07-12T17:33:28.991Z,7.10
2018-07-12T17:35:56.234Z,6.65
2018-07-12T17:38:23.386Z,6.65
2018-07-12T17:40:50.537Z,5.17
2018-07-12T17:43:17.684Z,6.42
2018-07-12T17:45:44.839Z,5.60
2018-07-12T17:48:11.974Z,7.10
2018-07-12T17:50:39.178Z,5.90
2018-07-12T17:53:06.630Z,11.10
2018-07-12T17:55:33.911Z,7.05
2018-07-12T17:58:01.062Z,6.15
2018-07-12T18:00:28.242Z,5.78
2018-07-12T18:02:55.501Z,6.60
2018-07-12T18:05:22.786Z,9.00
2018-07-12T18:07:49.842Z,6.35
2018-07-12T18:10:17.305Z,11.68
2018-07-12T18:12:44.474Z,8.43
2018-07-12T18:15:11.645Z,9.20
2018-07-12T18:17:38.815Z,9.88
2018-07-12T18:20:06.032Z,8.00
2018-07-12T18:22:33.173Z,7.05
2018-07-12T18:25:00.515Z,7.20
2018-07-12T18:27:27.691Z,8.23
2018-07-12T18:29:54.875Z,8.03
2018-07-12T18:32:22.083Z,8.60
2018-07-12T18:34:49.247Z,8.13
2018-07-12T18:37:16.434Z,8.53
2018-07-12T18:39:43.567Z,8.37
2018-07-12T18:42:10.859Z,7.97
2018-07-12T18:44:38.042Z,10.60
2018-07-12T18:47:05.363Z,6.97
2018-07-12T18:49:32.490Z,8.43
2018-07-12T18:51:59.671Z,18.47
2018-07-12T18:54:26.924Z,7.87
2018-07-12T18:56:54.075Z,7.37
2018-07-12T18:59:21.287Z,10.37
2018-07-12T19:01:48.634Z,7.50
2018-07-12T19:04:15.831Z,7.63
2018-07-12T19:06:42.963Z,8.73
2018-07-12T19:09:10.552Z,7.27
2018-07-12T19:11:37.931Z,8.33
2018-07-12T19:14:05.090Z,8.30
2018-07-12T19:16:32.203Z,7.63
2018-07-12T19:18:59.318Z,9.37
2018-07-12T19:21:26.559Z,12.60
2018-07-12T19:23:53.766Z,12.73
2018-07-12T19:26:21.016Z,10.50
2018-07-12T19:28:48.230Z,10.63
2018-07-12T19:31:15.424Z,13.53
2018-07-12T19:33:42.596Z,11.43
2018-07-12T19:36:09.712Z,11.27
2018-07-12T19:38:36.862Z,15.97
2018-07-12T19:41:04.030Z,13.97
2018-07-12T19:43:31.257Z,15.57
2018-07-12T19:45:58.459Z,12.23
2018-07-12T19:48:25.713Z,13.93
2018-07-12T19:50:59.831Z,14.10
2018-07-12T19:53:27.451Z,12.23
2018-07-12T19:55:54.637Z,11.70
2018-07-12T19:58:21.827Z,16.20
2018-07-12T20:00:48.994Z,13.00
2018-07-12T20:03:16.126Z,12.17
2018-07-12T20:05:43.304Z,16.93
2018-07-12T20:08:10.465Z,12.50
2018-07-12T20:13:11.667Z,13.13
2018-07-12T20:15:38.980Z,12.67
2018-07-12T20:18:06.171Z,13.07
2018-07-12T20:20:33.338Z,15.17
2018-07-12T20:23:00.536Z,12.57
2018-07-12T20:25:27.710Z,13.67
2018-07-12T20:27:54.892Z,12.10
2018-07-12T20:30:22.112Z,12.80
2018-07-12T20:32:49.248Z,14.77
2018-07-12T20:35:16.366Z,14.93
2018-07-12T20:37:43.481Z,11.40
2018-07-12T20:40:10.618Z,13.50
2018-07-12T20:42:37.738Z,12.07
2018-07-12T20:45:05.341Z,12.00
2018-07-12T20:47:32.514Z,10.30
2018-07-12T20:49:59.905Z,12.37
2018-07-12T20:52:27.176Z,11.40
2018-07-12T20:54:54.351Z,12.43
2018-07-12T20:57:21.510Z,11.23
2018-07-12T20:59:48.708Z,8.90
2018-07-12T21:02:15.827Z,9.43
2018-07-12T21:04:42.943Z,11.00
2018-07-12T21:07:10.080Z,12.13
2018-07-12T21:09:37.195Z,10.93
2018-07-12T21:12:04.335Z,14.20
2018-07-12T21:14:32.585Z,12.03
2018-07-12T21:16:59.793Z,11.73
2018-07-12T21:19:26.887Z,13.43
2018-07-12T21:21:54.020Z,14.37
2018-07-12T21:24:21.154Z,17.30
2018-07-12T21:26:48.295Z,15.30
2018-07-12T21:29:15.457Z,14.07
2018-07-12T21:31:42.751Z,13.00
2018-07-12T21:34:10.001Z,14.17
2018-07-12T21:36:37.158Z,13.10
2018-07-12T21:39:06.770Z,12.73
2018-07-12T21:41:33.986Z,14.17
2018-07-12T21:44:01.136Z,14.80
2018-07-12T21:46:28.290Z,12.80
2018-07-12T21:48:55.462Z,15.67
2018-07-12T21:51:22.616Z,11.23
2018-07-12T21:53:49.813Z,15.60
2018-07-12T21:56:18.036Z,12.60
2018-07-12T21:58:45.378Z,13.90
2018-07-12T22:01:12.502Z,12.33
2018-07-12T22:03:39.615Z,18.23
2018-07-12T22:06:06.766Z,13.07
2018-07-12T22:08:33.972Z,15.97
2018-07-12T22:11:03.302Z,10.50
2018-07-12T22:13:31.412Z,11.17
2018-07-12T22:15:58.596Z,10.80
2018-07-12T22:18:25.748Z,11.23
2018-07-12T22:20:52.892Z,12.13
2018-07-12T22:23:20.030Z,15.47
2018-07-12T22:25:47.168Z,13.67
2018-07-12T22:28:14.313Z,12.07
2018-07-12T22:30:41.567Z,14.63
2018-07-12T22:33:08.582Z,12.70
2018-07-12T22:35:35.762Z,12.77
2018-07-12T22:38:03.436Z,12.17
2018-07-12T22:40:30.924Z,13.30
2018-07-12T22:42:58.299Z,13.23
2018-07-12T22:45:25.437Z,9.53
2018-07-12T22:47:52.579Z,12.87
2018-07-12T22:50:19.738Z,12.07
2018-07-12T22:52:46.851Z,14.87
2018-07-12T22:55:14.079Z,12.50
2018-07-12T22:57:41.207Z,11.83
2018-07-12T23:00:08.813Z,12.03
2018-07-12T23:02:35.970Z,10.77
2018-07-12T23:05:03.197Z,9.80
2018-07-12T23:07:30.389Z,11.23
2018-07-12T23:09:57.676Z,12.10
2018-07-12T23:12:24.798Z,10.03
2018-07-12T23:14:52.034Z,9.87
2018-07-12T23:17:20.175Z,11.37
2018-07-12T23:19:47.301Z,9.17
2018-07-12T23:22:14.428Z,11.27
2018-07-12T23:24:41.554Z,10.07
2018-07-12T23:27:08.686Z,14.33
2018-07-12T23:29:35.838Z,11.47
2018-07-12T23:32:03.021Z,9.83
2018-07-12T23:34:30.332Z,9.40
2018-07-12T23:36:57.468Z,10.30
2018-07-12T23:39:24.747Z,12.07
2018-07-12T23:41:51.897Z,10.17
2018-07-12T23:44:19.047Z,11.17
2018-07-12T23:46:46.175Z,9.47
2018-07-12T23:49:13.307Z,9.50
2018-07-12T23:51:40.417Z,13.87
2018-07-12T23:54:07.532Z,9.70
2018-07-12T23:56:34.676Z,10.13
2018-07-12T23:59:01.812Z,9.17
